createdAt,value
2023-03-15T00:02:08.126Z,99836.58
2023-03-15T00:04:37.749Z,99830.19
2023-03-15T00:07:06.943Z,99827.27
2023-03-15T00:09:36.494Z,99822.23
2023-03-15T00:12:07.208Z,99817.91
2023-03-15T00:14:37.681Z,99815.85
2023-03-15T00:17:06.958Z,99819.85
2023-03-15T00:19:35.955Z,99818.31
2023-03-15T00:22:05.471Z,99817.10
2023-03-15T00:24:34.984Z,99815.89
2023-03-15T00:27:05.976Z,99816.60
2023-03-15T00:29:35.889Z,99815.73
2023-03-15T00:32:05.792Z,99815.34
2023-03-15T00:34:35.007Z,99810.48
2023-03-15T00:37:03.143Z,99804.94
2023-03-15T00:39:37.412Z,99803.73
2023-03-15T01:40:43.097Z,99725.52
2023-03-15T01:43:18.420Z,99721.17
2023-03-15T01:46:38.125Z,99714.77
2023-03-15T01:49:22.215Z,99707.29
2023-03-15T01:51:55.788Z,99709.89
2023-03-15T01:54:31.180Z,99708.16
2023-03-15T01:57:03.990Z,99708.34
2023-03-15T01:59:36.776Z,99706.42
2023-03-15T02:02:07.743Z,99704.17
2023-03-15T02:04:46.015Z,99702.27
2023-03-15T02:07:18.193Z,99700.70
2023-03-15T02:09:54.760Z,99695.66
2023-03-15T02:12:24.156Z,99694.98
2023-03-15T02:14:54.117Z,99693.77
2023-03-15T02:17:30.864Z,99695.50
2023-03-15T02:20:12.235Z,99690.81
2023-03-15T02:22:52.689Z,99695.84
2023-03-15T02:25:34.445Z,99695.99
2023-03-15T02:28:05.870Z,99696.52
2023-03-15T02:30:35.448Z,99694.79
2023-03-15T02:33:09.160Z,99690.29
2023-03-15T02:35:38.471Z,99689.59
2023-03-15T02:38:07.683Z,99687.15
2023-03-15T02:40:39.713Z,99683.36
2023-03-15T02:43:13.926Z,99682.48
2023-03-15T02:45:44.854Z,99685.59
2023-03-15T02:48:14.066Z,99684.55
2023-03-15T02:50:42.047Z,99692.88
2023-03-15T02:53:11.840Z,99691.13
2023-03-15T02:55:41.035Z,99689.91
2023-03-15T02:58:09.068Z,99683.85
2023-03-15T03:00:38.922Z,99678.45
2023-03-15T03:03:08.523Z,99686.95
2023-03-15T03:05:37.942Z,99689.55
2023-03-15T03:08:07.550Z,99695.09
2023-03-15T03:10:36.781Z,99696.65
2023-03-15T03:13:04.918Z,99696.15
2023-03-15T03:15:34.527Z,99694.74
2023-03-15T03:18:05.057Z,99692.15
2023-03-15T03:20:34.755Z,99690.77
2023-03-15T03:23:05.720Z,99690.77
2023-03-15T03:25:36.213Z,99687.48
2023-03-15T03:28:05.367Z,99688.02
2023-03-15T03:30:35.054Z,99686.63
2023-03-15T03:33:04.480Z,99683.67
2023-03-15T03:35:33.616Z,99682.30
2023-03-15T03:38:01.619Z,99684.71
2023-03-15T04:11:29.254Z,99687.59
2023-03-15T04:13:59.059Z,99681.88
2023-03-15T04:16:28.340Z,99676.50
2023-03-15T04:18:56.400Z,99671.29
2023-03-15T04:21:25.947Z,99674.41
2023-03-15T04:23:55.327Z,99678.21
2023-03-15T04:26:25.975Z,99676.65
2023-03-15T04:28:56.389Z,99674.23
2023-03-15T04:31:26.713Z,99673.34
2023-03-15T04:33:56.424Z,99669.19
2023-03-15T04:36:25.498Z,99669.37
2023-03-15T04:39:04.907Z,99668.65
2023-03-15T04:41:34.827Z,99665.36
2023-03-15T04:44:05.160Z,99660.52
2023-03-15T04:46:34.371Z,99662.27
2023-03-15T04:49:04.518Z,99660.16
2023-03-15T04:51:34.568Z,99657.71
2023-03-15T04:54:03.957Z,99660.14
2023-03-15T04:56:31.988Z,99667.25
2023-03-15T04:59:01.284Z,99669.85
2023-03-15T05:01:30.758Z,99666.37
2023-03-15T05:04:00.330Z,99664.96
2023-03-15T05:06:30.047Z,99662.17
2023-03-15T05:08:59.332Z,99658.89
2023-03-15T05:11:27.440Z,99658.88
2023-03-15T05:13:56.846Z,99659.04
2023-03-15T05:16:26.457Z,99657.69
2023-03-15T05:18:56.842Z,99657.17
2023-03-15T05:21:26.028Z,99658.75
2023-03-15T05:23:55.194Z,99658.23
2023-03-15T05:26:25.053Z,99657.71
2023-03-15T05:28:54.209Z,99653.55
2023-03-15T05:31:22.301Z,99650.27
2023-03-15T05:33:53.971Z,99647.50
2023-03-15T05:36:23.153Z,99649.06
2023-03-15T05:38:52.204Z,99650.13
2023-03-15T05:41:21.224Z,99655.70
2023-03-15T05:43:50.279Z,99654.86
2023-03-15T05:46:19.980Z,99653.30
2023-03-15T05:48:49.020Z,99649.86
2023-03-15T05:51:18.156Z,99647.78
2023-03-15T05:53:47.585Z,99645.71
2023-03-15T05:56:16.482Z,99648.50
2023-03-15T05:58:45.488Z,99651.63
2023-03-15T06:01:14.603Z,99651.28
2023-03-15T06:03:43.777Z,99657.69
2023-03-15T06:06:12.822Z,99657.35
2023-03-15T06:08:41.825Z,99654.41
2023-03-15T06:11:11.715Z,99651.98
2023-03-15T06:17:43.206Z,99646.27
2023-03-15T06:20:13.875Z,99641.08
2023-03-15T06:22:42.945Z,99642.80
2023-03-15T06:25:11.530Z,99643.48
2023-03-15T06:27:40.541Z,99642.27
2023-03-15T06:30:11.929Z,99638.45
2023-03-15T06:32:41.008Z,99641.56
2023-03-15T06:35:10.439Z,99645.90
2023-03-15T06:37:41.371Z,99644.51
2023-03-15T06:40:13.435Z,99643.95
2023-03-15T06:42:42.544Z,99647.05
2023-03-15T06:45:15.930Z,99647.71
2023-03-15T06:47:44.944Z,99647.54
2023-03-15T06:50:14.055Z,99651.88
2023-03-15T06:52:43.158Z,99649.59
2023-03-15T06:55:16.724Z,99643.67
2023-03-15T06:57:45.925Z,99637.39
2023-03-15T07:00:17.198Z,99637.34
2023-03-15T07:02:46.187Z,99637.67
2023-03-15T07:05:16.119Z,99640.75
2023-03-15T07:07:45.115Z,99635.15
2023-03-15T07:10:14.401Z,99637.70
2023-03-15T07:12:43.495Z,99644.10
2023-03-15T07:15:13.592Z,99646.66
2023-03-15T07:17:42.669Z,99643.81
2023-03-15T07:20:12.213Z,99640.98
2023-03-15T07:22:41.266Z,99642.17
2023-03-15T07:25:11.016Z,99644.20
2023-03-15T07:27:40.100Z,99638.72
2023-03-15T07:30:10.277Z,99634.97
2023-03-15T07:32:39.499Z,99627.05
2023-03-15T07:35:12.923Z,99615.26
2023-03-15T07:37:44.607Z,99610.95
2023-03-15T07:40:15.581Z,99610.61
2023-03-15T07:42:45.396Z,99607.04
2023-03-15T07:45:14.729Z,99607.60
2023-03-15T07:47:44.407Z,99613.94
2023-03-15T07:50:16.922Z,99615.48
2023-03-15T07:52:46.173Z,99609.85
2023-03-15T07:55:15.285Z,99610.98
2023-03-15T07:57:43.178Z,99608.78
2023-03-15T08:00:14.329Z,99604.54
2023-03-15T08:02:43.821Z,99596.81
2023-03-15T08:05:12.957Z,99596.73
2023-03-15T08:07:41.155Z,99592.63
2023-03-15T08:10:12.218Z,99588.41
2023-03-15T08:12:42.583Z,99592.36
2023-03-15T08:15:15.738Z,99586.44
2023-03-15T08:17:46.967Z,99575.19
2023-03-15T08:20:17.589Z,99573.52
2023-03-15T08:22:47.219Z,99574.69
2023-03-15T08:25:19.551Z,99573.75
2023-03-15T08:27:50.496Z,99573.66
2023-03-15T08:30:21.471Z,99576.57
2023-03-15T08:32:51.946Z,99575.30
2023-03-15T08:35:22.484Z,99571.67
2023-03-15T08:37:51.907Z,99570.30
2023-03-15T08:40:24.813Z,99573.22
2023-03-15T08:42:55.283Z,99579.92
2023-03-15T08:45:25.764Z,99575.45
2023-03-15T08:47:56.682Z,99579.08
2023-03-15T08:50:29.504Z,99585.17
2023-03-15T08:52:58.800Z,99590.50
2023-03-15T08:55:29.485Z,99591.17
2023-03-15T08:58:01.018Z,99590.20
2023-03-15T09:00:30.470Z,99586.93
2023-03-15T09:03:03.842Z,99589.55
2023-03-15T09:05:36.470Z,99584.27
2023-03-15T09:08:06.341Z,99582.06
2023-03-15T09:10:35.664Z,99585.67
2023-03-15T09:13:04.674Z,99582.67
2023-03-15T09:15:33.675Z,99577.11
2023-03-15T09:18:05.553Z,99569.30
2023-03-15T09:20:34.692Z,99564.72
2023-03-15T09:23:02.642Z,99567.17
2023-03-15T09:25:31.736Z,99566.02
2023-03-15T09:27:59.882Z,99561.50
2023-03-15T09:30:29.379Z,99557.60
2023-03-15T09:33:09.953Z,99560.11
2023-03-15T09:35:38.995Z,99566.92
2023-03-15T09:38:08.115Z,99575.47
2023-03-15T09:40:58.466Z,99574.70
2023-03-15T09:43:50.968Z,99567.75
2023-03-15T09:46:29.284Z,99564.21
2023-03-15T09:49:04.424Z,99558.81
2023-03-15T09:51:41.439Z,99557.31
2023-03-15T09:54:14.654Z,99555.92
2023-03-15T09:56:51.104Z,99559.67
2023-03-15T09:59:22.351Z,99550.95
2023-03-15T10:01:56.100Z,99552.97
2023-03-15T10:04:30.506Z,99555.45
2023-03-15T10:07:03.967Z,99559.35
2023-03-15T10:09:34.730Z,99560.27
2023-03-15T10:12:23.356Z,99559.30
2023-03-15T10:15:26.216Z,99556.33
2023-03-15T10:18:26.352Z,99557.59
2023-03-15T10:21:07.497Z,99552.01
2023-03-15T10:23:55.717Z,99555.55
2023-03-15T10:26:33.610Z,99555.92
2023-03-15T10:29:15.590Z,99560.13
2023-03-15T10:31:46.640Z,99554.36
2023-03-15T10:34:16.624Z,99550.73
2023-03-15T10:36:49.345Z,99549.05
2023-03-15T10:39:23.417Z,99539.65
2023-03-15T10:41:55.548Z,99517.97
2023-03-15T10:44:27.564Z,99511.13
2023-03-15T10:47:21.469Z,99510.62
2023-03-15T10:50:01.122Z,99510.02
2023-03-15T10:52:38.269Z,99511.02
2023-03-15T10:55:14.038Z,99516.50
2023-03-15T10:57:55.559Z,99514.64
2023-03-15T11:00:33.609Z,99510.10
2023-03-15T11:03:06.136Z,99506.80
2023-03-15T11:05:41.566Z,99507.77
2023-03-15T11:08:14.426Z,99506.99
2023-03-15T11:10:47.157Z,99502.20
2023-03-15T11:13:23.874Z,99497.13
2023-03-15T11:16:03.745Z,99493.64
2023-03-15T11:18:43.162Z,99492.77
2023-03-15T11:21:19.618Z,99491.82
2023-03-15T11:23:50.810Z,99487.41
2023-03-15T11:26:39.214Z,99482.71
2023-03-15T11:29:23.752Z,99476.67
2023-03-15T11:31:56.729Z,99474.04
2023-03-15T11:34:39.090Z,99467.45
2023-03-15T11:37:19.605Z,99462.89
2023-03-15T11:40:10.504Z,99454.80
2023-03-15T11:42:48.553Z,99450.20
2023-03-15T11:45:29.438Z,99443.89
2023-03-15T11:48:06.404Z,99439.46
2023-03-15T11:50:40.168Z,99435.92
2023-03-15T11:53:14.437Z,99432.27
2023-03-15T11:55:51.704Z,99427.27
2023-03-15T11:58:37.833Z,99424.94
2023-03-15T12:01:11.121Z,99417.60
2023-03-15T12:03:45.107Z,99414.00
2023-03-15T12:06:47.427Z,99412.71
2023-03-15T12:09:51.421Z,99412.58
2023-03-15T12:12:44.689Z,99411.86
2023-03-15T12:15:45.340Z,99411.16
2023-03-15T12:18:26.435Z,99407.98
2023-03-15T12:21:24.002Z,99403.03
2023-03-15T12:24:04.689Z,99395.56
2023-03-15T12:26:42.780Z,99393.48
2023-03-15T12:29:22.623Z,99390.59
2023-03-15T12:31:58.233Z,99385.76
2023-03-15T12:34:36.584Z,99382.01
2023-03-15T12:37:09.838Z,99383.02
2023-03-15T12:39:42.850Z,99385.13
2023-03-15T12:42:53.931Z,99384.23
2023-03-15T12:45:45.811Z,99380.54
2023-03-15T12:48:23.207Z,99377.84
2023-03-15T12:51:14.045Z,99374.29
2023-03-15T12:53:52.602Z,99374.52
2023-03-15T12:56:44.321Z,99376.56
2023-03-15T12:59:47.753Z,99379.84
2023-03-15T13:02:44.398Z,99376.34
2023-03-15T13:05:20.590Z,99381.07
2023-03-15T13:08:19.556Z,99382.80
2023-03-15T13:10:59.962Z,99383.45
2023-03-15T13:14:00.200Z,99382.04
2023-03-15T13:16:36.237Z,99386.64
2023-03-15T13:19:18.681Z,99387.46
2023-03-15T13:22:15.431Z,99388.86
2023-03-15T13:24:57.296Z,99390.48
2023-03-15T13:27:50.388Z,99392.10
2023-03-15T13:30:38.285Z,99395.94
2023-03-15T13:33:22.523Z,99400.73
2023-03-15T13:36:11.336Z,99397.93
2023-03-15T13:38:43.486Z,99395.07
2023-03-15T13:41:21.556Z,99395.58
2023-03-15T13:43:52.721Z,99396.44
2023-03-15T13:46:23.897Z,99394.55
2023-03-15T13:48:54.295Z,99396.06
2023-03-15T13:51:35.636Z,99396.77
2023-03-15T13:54:08.555Z,99399.66
2023-03-15T13:56:49.703Z,99394.27
2023-03-15T13:59:20.151Z,99386.73
2023-03-15T14:01:54.077Z,99383.97
2023-03-15T14:04:39.747Z,99381.15
2023-03-15T14:07:27.671Z,99377.13
2023-03-15T14:10:24.668Z,99382.43
2023-03-15T14:12:56.137Z,99386.00
2023-03-15T14:15:35.182Z,99382.88
2023-03-15T14:18:16.977Z,99384.38
2023-03-15T14:20:52.967Z,99380.78
2023-03-15T14:23:26.474Z,99377.36
2023-03-15T14:26:01.145Z,99376.41
2023-03-15T14:28:32.749Z,99375.23
2023-03-15T14:31:02.354Z,99376.38
2023-03-15T14:33:37.579Z,99367.57
2023-03-15T14:36:10.127Z,99360.83
2023-03-15T14:38:40.742Z,99360.35
2023-03-15T14:41:25.262Z,99361.50
2023-03-15T14:43:54.513Z,99363.08
2023-03-15T14:46:23.987Z,99357.20
2023-03-15T14:48:53.356Z,99365.33
2023-03-15T14:51:25.145Z,99368.48
2023-03-15T14:53:57.170Z,99366.48
2023-03-15T14:56:26.282Z,99363.56
2023-03-15T14:58:55.452Z,99366.29
2023-03-15T15:01:26.894Z,99365.73
2023-03-15T15:03:59.225Z,99362.83
2023-03-15T15:06:31.390Z,99356.38
2023-03-15T15:09:03.130Z,99354.44
2023-03-15T15:11:32.959Z,99350.63
2023-03-15T15:14:29.482Z,99352.59
2023-03-15T15:16:58.630Z,99359.44
2023-03-15T15:19:27.804Z,99357.07
2023-03-15T15:21:57.558Z,99364.21
2023-03-15T15:24:27.534Z,99373.85
2023-03-15T15:26:56.535Z,99373.34
2023-03-15T15:29:25.598Z,99374.27
2023-03-15T15:31:55.156Z,99376.21
2023-03-15T15:34:24.679Z,99374.74
2023-03-15T15:36:53.959Z,99374.59
2023-03-15T15:39:25.618Z,99380.75
2023-03-15T15:41:54.575Z,99381.50
2023-03-15T15:44:24.955Z,99379.38
2023-03-15T15:46:54.354Z,99380.29
2023-03-15T15:49:23.846Z,99376.34
2023-03-15T15:51:52.883Z,99374.71
2023-03-15T15:54:26.124Z,99373.14
2023-03-15T15:56:57.816Z,99375.41
2023-03-15T15:59:27.253Z,99382.16
2023-03-15T16:02:01.711Z,99385.31
2023-03-15T16:04:32.336Z,99387.89
2023-03-15T16:07:03.316Z,99388.27
2023-03-15T16:09:35.446Z,99388.84
2023-03-15T16:12:11.213Z,99391.12
2023-03-15T16:14:41.642Z,99404.09
2023-03-15T16:17:18.109Z,99407.53
2023-03-15T16:19:47.499Z,99407.00
2023-03-15T16:22:18.455Z,99417.64
2023-03-15T16:24:51.438Z,99418.20
2023-03-15T16:27:26.940Z,99414.42
2023-03-15T16:29:56.213Z,99418.52
2023-03-15T16:32:42.878Z,99421.77
2023-03-15T16:35:14.941Z,99422.81
2023-03-15T16:37:47.338Z,99429.88
2023-03-15T16:40:22.557Z,99430.87
2023-03-15T16:42:52.187Z,99433.14
2023-03-15T16:45:22.075Z,99433.33
2023-03-15T16:47:51.659Z,99434.95
2023-03-15T16:50:21.174Z,99434.39
2023-03-15T16:52:55.432Z,99439.25
2023-03-15T16:55:26.821Z,99447.89
2023-03-15T16:57:57.535Z,99452.42
2023-03-15T17:00:27.312Z,99454.45
2023-03-15T17:02:59.486Z,99457.27
2023-03-15T17:05:28.964Z,99458.11
2023-03-15T17:08:00.217Z,99456.61
2023-03-15T17:10:32.109Z,99456.42
2023-03-15T17:13:02.540Z,99454.49
2023-03-15T17:15:31.692Z,99449.79
2023-03-15T17:18:02.658Z,99451.04
2023-03-15T17:20:31.837Z,99451.61
2023-03-15T17:23:04.282Z,99455.13
2023-03-15T17:25:34.680Z,99459.35
2023-03-15T17:28:04.816Z,99456.14
2023-03-15T17:30:36.223Z,99452.19
2023-03-15T17:33:06.116Z,99453.22
2023-03-15T17:35:37.576Z,99449.66
2023-03-15T17:38:13.722Z,99447.95
2023-03-15T17:40:43.271Z,99445.42
2023-03-15T17:43:14.396Z,99445.69
2023-03-15T17:45:44.278Z,99457.83
2023-03-15T17:48:13.924Z,99460.20
2023-03-15T17:50:45.284Z,99459.44
2023-03-15T17:53:17.298Z,99460.01
2023-03-15T17:55:49.088Z,99460.56
2023-03-15T17:58:22.452Z,99463.63
2023-03-15T18:00:56.006Z,99467.14
2023-03-15T18:03:31.350Z,99470.94
2023-03-15T18:06:05.136Z,99467.90
2023-03-15T18:08:36.406Z,99473.81
2023-03-15T18:11:16.909Z,99477.06
2023-03-15T18:13:46.067Z,99483.23
2023-03-15T18:16:15.475Z,99488.83
2023-03-15T18:18:48.159Z,99486.76
2023-03-15T18:21:20.347Z,99489.32
2023-03-15T18:23:53.788Z,99492.33
2023-03-15T18:26:26.593Z,99497.66
2023-03-15T18:28:56.063Z,99498.60
2023-03-15T18:31:26.805Z,99492.28
2023-03-15T18:33:57.205Z,99493.96
2023-03-15T18:36:26.685Z,99492.28
2023-03-15T18:38:56.689Z,99494.27
2023-03-15T18:41:26.852Z,99499.13
2023-03-15T18:43:58.337Z,99507.40
2023-03-15T18:46:27.717Z,99513.35
2023-03-15T18:48:57.015Z,99516.64
2023-03-15T18:51:27.768Z,99519.09
2023-03-15T18:53:57.448Z,99521.22
2023-03-15T18:56:31.466Z,99516.61
2023-03-15T18:59:01.967Z,99518.89
2023-03-15T19:01:33.995Z,99530.30
2023-03-15T19:04:03.302Z,99537.29
2023-03-15T19:06:34.651Z,99541.64
2023-03-15T19:09:04.957Z,99537.08
2023-03-15T19:11:37.804Z,99538.86
2023-03-15T19:14:07.485Z,99540.92
2023-03-15T19:16:53.382Z,99543.65
2023-03-15T19:19:23.980Z,99552.48
2023-03-15T19:22:05.759Z,99560.81
2023-03-15T19:24:37.290Z,99555.52
2023-03-15T19:27:09.970Z,99555.60
2023-03-15T19:29:45.158Z,99559.95
2023-03-15T19:32:19.906Z,99560.60
2023-03-15T19:34:52.579Z,99560.52
2023-03-15T19:37:25.182Z,99564.23
2023-03-15T19:39:59.774Z,99568.84
2023-03-15T19:42:31.143Z,99575.08
2023-03-15T19:45:11.995Z,99580.05
2023-03-15T19:47:44.414Z,99584.45
2023-03-15T19:53:00.325Z,99584.82
2023-03-15T19:55:31.701Z,99586.12
2023-03-15T19:58:01.273Z,99589.96
2023-03-15T20:00:33.978Z,99591.98
2023-03-15T20:03:03.210Z,99588.20
2023-03-15T20:05:34.448Z,99586.27
2023-03-15T20:08:03.688Z,99592.89
2023-03-15T20:10:33.190Z,99594.61
2023-03-15T20:13:03.174Z,99602.29
2023-03-15T20:15:32.191Z,99601.91
2023-03-15T20:18:03.718Z,99606.69
2023-03-15T20:20:33.077Z,99609.00
2023-03-15T20:23:03.134Z,99618.23
2023-03-15T20:25:32.438Z,99616.76
2023-03-15T20:28:03.575Z,99618.07
2023-03-15T20:30:33.065Z,99627.84
2023-03-15T20:33:02.502Z,99630.61
2023-03-15T20:35:31.661Z,99633.19
2023-03-15T20:38:06.259Z,99637.95
2023-03-15T20:40:37.936Z,99639.61
2023-03-15T20:43:07.724Z,99636.38
2023-03-15T20:45:36.970Z,99637.34
2023-03-15T20:48:06.272Z,99632.71
2023-03-15T20:50:41.511Z,99635.25
2023-03-15T20:53:14.119Z,99642.48
2023-03-15T20:55:44.965Z,99654.44
2023-03-15T20:58:17.418Z,99660.79
2023-03-15T21:00:47.795Z,99667.11
2023-03-15T21:03:18.120Z,99662.26
2023-03-15T21:05:47.867Z,99665.68
2023-03-15T21:08:19.753Z,99673.98
2023-03-15T21:10:49.226Z,99675.80
2023-03-15T21:13:18.522Z,99671.67
2023-03-15T21:15:48.431Z,99675.65
2023-03-15T21:18:21.933Z,99681.77
2023-03-15T21:20:58.232Z,99687.50
2023-03-15T21:23:30.663Z,99703.02
2023-03-15T21:26:03.119Z,99717.06
2023-03-15T21:28:35.516Z,99720.82
2023-03-15T21:31:05.544Z,99725.44
2023-03-15T21:33:35.338Z,99730.20
2023-03-15T21:36:05.416Z,99734.61
2023-03-15T21:38:35.991Z,99731.70
2023-03-15T21:41:10.627Z,99721.36
2023-03-15T21:43:41.688Z,99729.83
2023-03-15T21:46:13.427Z,99733.73
2023-03-15T21:48:43.143Z,99737.63
2023-03-15T21:51:14.581Z,99744.25
2023-03-15T21:53:46.035Z,99749.15
2023-03-15T21:56:16.231Z,99755.96
2023-03-15T21:58:45.760Z,99760.31
2023-03-15T22:01:15.030Z,99759.10
2023-03-15T22:03:44.272Z,99746.02
2023-03-15T22:06:16.768Z,99741.76
2023-03-15T22:08:47.285Z,99736.46
2023-03-15T22:11:26.057Z,99733.25
2023-03-15T22:13:59.258Z,99740.39
2023-03-15T22:16:33.042Z,99749.78
2023-03-15T22:19:04.052Z,99755.83
2023-03-15T22:21:36.368Z,99757.96
2023-03-15T22:24:21.206Z,99766.89
2023-03-15T22:26:52.648Z,99763.77
2023-03-15T22:29:21.968Z,99761.52
2023-03-15T22:31:53.039Z,99759.29
2023-03-15T22:34:27.034Z,99758.98
2023-03-15T22:36:56.227Z,99751.38
2023-03-15T22:39:27.304Z,99748.10
2023-03-15T22:41:57.944Z,99754.10
2023-03-15T22:44:30.959Z,99752.21
2023-03-15T22:47:02.393Z,99757.30
2023-03-15T22:49:33.385Z,99754.55
2023-03-15T22:52:05.271Z,99764.38
2023-03-15T22:54:35.482Z,99766.63
2023-03-15T22:57:09.621Z,99768.84
2023-03-15T22:59:39.810Z,99771.80
2023-03-15T23:02:11.546Z,99779.13
2023-03-15T23:04:41.649Z,99785.20
2023-03-15T23:07:11.504Z,99791.50
2023-03-15T23:09:41.113Z,99801.95
2023-03-15T23:12:12.244Z,99811.52
2023-03-15T23:14:44.742Z,99813.60
2023-03-15T23:17:16.544Z,99812.09
2023-03-15T23:19:48.025Z,99815.46
2023-03-15T23:22:17.449Z,99814.95
2023-03-15T23:24:48.269Z,99817.40
2023-03-15T23:27:17.593Z,99815.14
2023-03-15T23:29:55.369Z,99812.56
2023-03-15T23:32:27.288Z,99818.90
2023-03-15T23:34:57.457Z,99815.95
2023-03-15T23:37:30.672Z,99818.11
2023-03-15T23:40:01.616Z,99815.01
2023-03-15T23:42:32.471Z,99815.86
2023-03-15T23:45:09.174Z,99816.91
2023-03-15T23:47:39.751Z,99820.91
2023-03-15T23:50:12.876Z,99822.76
2023-03-15T23:53:01.950Z,99820.21
2023-03-15T23:55:33.042Z,99824.84
2023-03-15T23:58:06.206Z,99821.88
